Middle Wallop, United Kingdom
Current Conditions -  °F | °C
As of 8:07 AM on Tuesday 21 Oct 2014 (Local Time) from EGVP Reporting Station
Broken Clouds Broken Clouds  
Wind Chill: 55°   Ceiling: 2000
Heat Index: 55°   Visibility: 6mi
Dew Point: 52°   Wind: 18mph
Humidity: 88%   Direction: 280°W
Pressure: 29.59"   Gusts: 31mph
Location:  51.15°N, 1.57°W
Report Text: EGVP 210707Z 28016G27KT 9999 FEW010 BKN020 BKN040 13/11 Q1002 WHT BECMG FEW022 BLU
Loading
Personal Weather Stations






























Interactive Weather Map
Tropical Storm Tracking
New forecast layout! Learn more

10-Day Weather Forecast

Advertisements
Track Severe Weather on mobile